sensor_id;sensor_type;location;lat;lon;timestamp;pressure;altitude;pressure_sealevel;temperature;humidity
69593;BME280;56796;50.122;14.468;2022-12-07T00:15:59;977.15;;;2.86;97.34
69593;BME280;56796;50.122;14.468;2022-12-07T00:35:23;977.12;;;2.87;97.19
69593;BME280;56796;50.122;14.468;2022-12-07T00:54:49;976.98;;;2.82;97.71
69593;BME280;56796;50.122;14.468;2022-12-07T01:14:17;977.05;;;2.78;98.07
69593;BME280;56796;50.122;14.468;2022-12-07T01:33:43;977.05;;;2.76;98.22
69593;BME280;56796;50.122;14.468;2022-12-07T01:53:06;976.88;;;2.7;98.25
69593;BME280;56796;50.122;14.468;2022-12-07T02:12:34;976.91;;;2.7;98.1
69593;BME280;56796;50.122;14.468;2022-12-07T02:32:02;976.87;;;2.69;98.04
69593;BME280;56796;50.122;14.468;2022-12-07T02:51:24;976.96;;;2.71;97.87
69593;BME280;56796;50.122;14.468;2022-12-07T03:10:56;976.69;;;2.63;97.89
69593;BME280;56796;50.122;14.468;2022-12-07T03:30:13;976.52;;;2.65;97.72
69593;BME280;56796;50.122;14.468;2022-12-07T03:49:40;976.32;;;2.56;97.47
69593;BME280;56796;50.122;14.468;2022-12-07T04:09:03;976.3;;;2.56;97.39
69593;BME280;56796;50.122;14.468;2022-12-07T04:28:28;976.17;;;2.56;96.81
69593;BME280;56796;50.122;14.468;2022-12-07T04:47:56;976.25;;;2.45;96.27
69593;BME280;56796;50.122;14.468;2022-12-07T05:07:19;976.17;;;2.1;96.77
69593;BME280;56796;50.122;14.468;2022-12-07T05:26:44;976.17;;;1.78;97.46
69593;BME280;56796;50.122;14.468;2022-12-07T05:46:09;976.1;;;1.65;97.46
69593;BME280;56796;50.122;14.468;2022-12-07T06:05:36;976.18;;;1.54;96.49
69593;BME280;56796;50.122;14.468;2022-12-07T06:25:02;976.17;;;1.28;96.89
69593;BME280;56796;50.122;14.468;2022-12-07T06:44:26;976.11;;;1.16;96.66
69593;BME280;56796;50.122;14.468;2022-12-07T07:03:51;976.19;;;1.5;96.1
69593;BME280;56796;50.122;14.468;2022-12-07T07:23:22;976.08;;;2.49;90.76
69593;BME280;56796;50.122;14.468;2022-12-07T07:42:47;976.14;;;4.34;88.33
69593;BME280;56796;50.122;14.468;2022-12-07T08:02:26;976.08;;;7.25;75.45
69593;BME280;56796;50.122;14.468;2022-12-07T08:21:50;976.27;;;2.89;85.38
69593;BME280;56796;50.122;14.468;2022-12-07T08:41:02;976.27;;;2.17;90.16
69593;BME280;56796;50.122;14.468;2022-12-07T09:00:26;976.21;;;2.3;90.88
69593;BME280;56796;50.122;14.468;2022-12-07T09:19:53;976.32;;;2.57;89.88
69593;BME280;56796;50.122;14.468;2022-12-07T09:39:24;976.2;;;2.93;88.27
69593;BME280;56796;50.122;14.468;2022-12-07T09:58:41;976.13;;;3.03;88.49
69593;BME280;56796;50.122;14.468;2022-12-07T10:37:35;976;;;3.31;87.85
69593;BME280;56796;50.122;14.468;2022-12-07T10:57:05;975.92;;;3.53;87.85
69593;BME280;56796;50.122;14.468;2022-12-07T11:36:02;975.38;;;5.59;81.81
69593;BME280;56796;50.122;14.468;2022-12-07T11:55:39;975.22;;;9.38;71.38
69593;BME280;56796;50.122;14.468;2022-12-07T12:15:20;975.1;;;10.45;65.08
69593;BME280;56796;50.122;14.468;2022-12-07T12:34:51;975.05;;;9.74;65.47
69593;BME280;56796;50.122;14.468;2022-12-07T12:54:10;974.99;;;10.76;61.63
69593;BME280;56796;50.122;14.468;2022-12-07T13:13:34;975.04;;;7.7;67.76
69593;BME280;56796;50.122;14.468;2022-12-07T13:32:51;975.08;;;5.6;74.67
69593;BME280;56796;50.122;14.468;2022-12-07T14:11:31;975.04;;;5.1;75.82
69593;BME280;56796;50.122;14.468;2022-12-07T14:30:55;975.17;;;4.48;79.77
69593;BME280;56796;50.122;14.468;2022-12-07T14:50:19;975.02;;;3.71;84.69
69593;BME280;56796;50.122;14.468;2022-12-07T15:09:42;975.09;;;3.26;87.03
69593;BME280;56796;50.122;14.468;2022-12-07T15:29:08;975.2;;;2.95;88.81
69593;BME280;56796;50.122;14.468;2022-12-07T15:48:35;975.11;;;2.95;89.65
69593;BME280;56796;50.122;14.468;2022-12-07T16:07:52;974.95;;;2.96;89.65
69593;BME280;56796;50.122;14.468;2022-12-07T16:27:20;975.03;;;2.74;90.3
69593;BME280;56796;50.122;14.468;2022-12-07T16:46:45;975.02;;;2.82;90.42
69593;BME280;56796;50.122;14.468;2022-12-07T17:25:31;975.15;;;2.76;89.25
69593;BME280;56796;50.122;14.468;2022-12-07T17:44:59;975.2;;;2.73;89.68
69593;BME280;56796;50.122;14.468;2022-12-07T18:04:23;975.22;;;2.86;89.62
69593;BME280;56796;50.122;14.468;2022-12-07T18:23:50;975.23;;;2.96;89.43
69593;BME280;56796;50.122;14.468;2022-12-07T18:43:19;975.25;;;2.93;89.55
69593;BME280;56796;50.122;14.468;2022-12-07T19:02:44;975.36;;;2.89;89.7
69593;BME280;56796;50.122;14.468;2022-12-07T19:22:09;975.29;;;2.81;90.25
69593;BME280;56796;50.122;14.468;2022-12-07T19:41:40;975.29;;;2.73;91.33
69593;BME280;56796;50.122;14.468;2022-12-07T20:01:01;975.27;;;2.64;91.72
69593;BME280;56796;50.122;14.468;2022-12-07T20:20:24;975.15;;;2.64;91.67
69593;BME280;56796;50.122;14.468;2022-12-07T20:39:38;975.12;;;2.56;91.94
69593;BME280;56796;50.122;14.468;2022-12-07T20:59:00;975.16;;;2.49;91.99
69593;BME280;56796;50.122;14.468;2022-12-07T21:18:24;975;;;2.33;92.99
69593;BME280;56796;50.122;14.468;2022-12-07T21:37:47;975.02;;;2.31;94.92
69593;BME280;56796;50.122;14.468;2022-12-07T21:57:13;975.07;;;2.21;94.46
69593;BME280;56796;50.122;14.468;2022-12-07T22:16:50;975.05;;;2.26;94.15
69593;BME280;56796;50.122;14.468;2022-12-07T22:35:57;975.08;;;2.1;94.58
69593;BME280;56796;50.122;14.468;2022-12-07T22:55:24;974.91;;;2.05;95.21
69593;BME280;56796;50.122;14.468;2022-12-07T23:14:47;974.78;;;2.08;95.55
69593;BME280;56796;50.122;14.468;2022-12-07T23:34:16;974.65;;;2.07;95.7
69593;BME280;56796;50.122;14.468;2022-12-07T23:53:34;974.64;;;2.03;96.2
